createdAt,value
2023-08-15T00:01:39.609Z,100992.98
2023-08-15T00:04:06.817Z,100993.27
2023-08-15T00:06:34.036Z,100995.07
2023-08-15T00:09:01.397Z,100993.62
2023-08-15T00:11:28.601Z,100994.60
2023-08-15T00:13:57.865Z,100995.79
2023-08-15T00:16:25.439Z,100995.33
2023-08-15T00:18:52.716Z,100999.02
2023-08-15T00:21:20.154Z,100999.90
2023-08-15T00:23:47.342Z,101001.23
2023-08-15T00:26:14.716Z,101006.11
2023-08-15T00:28:42.035Z,101004.56
2023-08-15T00:31:09.340Z,101007.21
2023-08-15T00:33:37.026Z,101009.17
2023-08-15T00:36:05.279Z,101005.91
2023-08-15T00:38:32.531Z,101010.41
2023-08-15T00:40:59.754Z,101009.50
2023-08-15T00:43:27.206Z,101013.27
2023-08-15T00:45:54.429Z,101008.63
2023-08-15T00:48:24.210Z,101016.22
2023-08-15T00:50:51.516Z,101014.86
2023-08-15T00:53:19.502Z,101014.52
2023-08-15T00:55:47.120Z,101013.02
2023-08-15T00:58:15.598Z,101012.02
2023-08-15T01:00:43.297Z,101011.77
2023-08-15T01:03:11.102Z,101015.08
2023-08-15T01:05:39.758Z,101016.86
2023-08-15T01:08:08.013Z,101015.23
2023-08-15T01:10:35.318Z,101014.58
2023-08-15T01:13:14.814Z,101012.95
2023-08-15T01:15:46.564Z,101011.09
2023-08-15T01:18:34.832Z,101013.19
2023-08-15T01:21:02.187Z,101008.06
2023-08-15T01:23:40.942Z,101006.62
2023-08-15T01:26:08.192Z,101009.83
2023-08-15T01:28:35.454Z,101008.79
2023-08-15T01:31:33.859Z,101003.89
2023-08-15T01:34:21.763Z,101003.98
2023-08-15T01:36:52.071Z,101006.52
2023-08-15T01:39:22.976Z,101006.02
2023-08-15T01:41:50.178Z,101001.73
2023-08-15T01:44:17.395Z,101008.73
2023-08-15T01:46:47.942Z,101004.69
2023-08-15T01:49:15.425Z,101004.09
2023-08-15T01:51:43.413Z,101003.71
2023-08-15T01:54:10.655Z,101002.50
2023-08-15T01:56:37.906Z,101001.30
2023-08-15T01:59:05.129Z,101000.52
2023-08-15T02:01:32.632Z,101002.20
2023-08-15T02:03:59.872Z,100996.02
2023-08-15T02:06:27.106Z,100997.47
2023-08-15T02:08:54.450Z,100993.77
2023-08-15T02:11:21.718Z,100995.63
2023-08-15T02:13:49.079Z,100994.67
2023-08-15T02:16:17.778Z,100994.99
2023-08-15T02:18:45.020Z,100999.64
2023-08-15T02:21:12.276Z,100994.96
2023-08-15T02:23:39.864Z,100996.27
2023-08-15T02:26:07.122Z,100995.56
2023-08-15T02:28:34.526Z,100995.40
2023-08-15T02:31:05.950Z,100996.46
2023-08-15T02:33:33.931Z,100994.59
2023-08-15T02:36:06.052Z,101001.95
2023-08-15T02:38:36.326Z,100999.17
2023-08-15T02:41:06.511Z,100998.67
2023-08-15T02:43:33.834Z,101001.41
2023-08-15T02:46:01.058Z,101003.88
2023-08-15T02:48:28.252Z,101005.70
2023-08-15T02:50:55.540Z,101007.05
2023-08-15T02:53:22.731Z,101011.91
2023-08-15T02:55:51.869Z,101009.84
2023-08-15T02:58:19.372Z,101010.95
2023-08-15T03:00:47.277Z,101012.61
2023-08-15T03:03:15.930Z,101014.36
2023-08-15T03:05:43.220Z,101017.84
2023-08-15T03:08:10.575Z,101018.80
2023-08-15T03:10:40.387Z,101019.91
2023-08-15T03:13:07.625Z,101026.95
2023-08-15T03:15:36.718Z,101027.40
2023-08-15T03:18:04.313Z,101027.63
2023-08-15T03:20:31.734Z,101027.73
2023-08-15T03:22:59.634Z,101028.17
2023-08-15T03:25:26.909Z,101029.72
2023-08-15T03:27:55.815Z,101030.97
2023-08-15T03:30:23.142Z,101035.66
2023-08-15T03:32:51.029Z,101034.73
2023-08-15T03:35:20.695Z,101034.06
2023-08-15T03:37:49.901Z,101038.89
2023-08-15T03:40:17.290Z,101042.83
2023-08-15T03:42:44.798Z,101041.89
2023-08-15T03:45:12.232Z,101048.13
2023-08-15T03:47:39.613Z,101043.78
2023-08-15T03:50:07.591Z,101047.29
2023-08-15T03:52:37.033Z,101044.70
2023-08-15T03:55:06.099Z,101042.08
2023-08-15T03:57:33.638Z,101048.31
2023-08-15T04:00:00.846Z,101049.66
2023-08-15T04:02:28.130Z,101054.08
2023-08-15T04:04:55.484Z,101056.23
2023-08-15T04:07:23.223Z,101054.90
2023-08-15T04:09:50.749Z,101047.91
2023-08-15T04:12:17.974Z,101045.65
2023-08-15T04:14:45.209Z,101047.50
2023-08-15T04:17:12.464Z,101049.88
2023-08-15T04:19:39.714Z,101048.42
2023-08-15T04:22:06.969Z,101045.99
2023-08-15T04:24:35.371Z,101045.59
2023-08-15T04:27:02.914Z,101046.84
2023-08-15T04:29:30.188Z,101043.17
2023-08-15T04:31:57.795Z,101042.69
2023-08-15T04:34:25.167Z,101045.55
2023-08-15T04:36:52.784Z,101047.54
2023-08-15T04:39:20.033Z,101044.70
2023-08-15T04:41:47.681Z,101050.08
2023-08-15T04:44:15.134Z,101048.48
2023-08-15T04:46:42.926Z,101049.49
2023-08-15T04:49:10.121Z,101050.13
2023-08-15T04:51:37.362Z,101047.36
2023-08-15T04:54:04.699Z,101046.29
2023-08-15T04:56:32.120Z,101051.06
2023-08-15T04:58:59.383Z,101050.88
2023-08-15T05:01:26.769Z,101051.80
2023-08-15T05:03:54.134Z,101051.45
2023-08-15T05:06:22.595Z,101050.41
2023-08-15T05:08:49.967Z,101054.11
2023-08-15T05:11:17.336Z,101056.48
2023-08-15T05:13:44.590Z,101057.40
2023-08-15T05:16:12.798Z,101055.66
2023-08-15T05:18:40.179Z,101054.29
2023-08-15T05:21:07.424Z,101057.27
2023-08-15T05:23:35.104Z,101057.18
2023-08-15T05:26:03.557Z,101055.36
2023-08-15T05:28:31.549Z,101054.07
2023-08-15T05:31:00.639Z,101054.23
2023-08-15T05:33:28.274Z,101052.84
2023-08-15T05:35:55.509Z,101050.69
2023-08-15T05:38:23.279Z,101048.48
2023-08-15T05:40:50.479Z,101044.25
2023-08-15T05:43:17.687Z,101043.61
2023-08-15T05:45:47.399Z,101043.06
2023-08-15T05:48:14.691Z,101040.05
2023-08-15T05:50:41.876Z,101042.11
2023-08-15T05:53:09.154Z,101041.94
2023-08-15T05:55:36.397Z,101043.47
2023-08-15T05:58:03.888Z,101043.48
2023-08-15T06:00:31.119Z,101042.98
2023-08-15T06:02:58.386Z,101043.64
2023-08-15T06:05:26.097Z,101047.40
2023-08-15T06:07:53.294Z,101052.30
2023-08-15T06:10:21.006Z,101055.39
2023-08-15T06:12:49.022Z,101052.50
2023-08-15T06:15:16.297Z,101051.36
2023-08-15T06:17:43.683Z,101048.69
2023-08-15T06:20:11.646Z,101046.38
2023-08-15T06:22:38.928Z,101053.54
2023-08-15T06:25:06.921Z,101050.55
2023-08-15T06:27:34.112Z,101045.50
2023-08-15T06:30:01.464Z,101047.69
2023-08-15T06:32:29.725Z,101042.19
2023-08-15T06:34:57.055Z,101042.61
2023-08-15T06:37:24.384Z,101045.11
2023-08-15T06:39:51.762Z,101045.23
2023-08-15T06:42:18.959Z,101040.95
2023-08-15T06:44:46.232Z,101043.77
2023-08-15T06:47:13.719Z,101041.98
2023-08-15T06:49:40.988Z,101042.76
2023-08-15T06:52:08.533Z,101045.51
2023-08-15T06:54:35.953Z,101048.62
2023-08-15T06:57:03.688Z,101042.02
2023-08-15T06:59:36.477Z,101042.79
2023-08-15T07:02:04.206Z,101043.24
2023-08-15T07:04:31.920Z,101040.33
2023-08-15T07:06:59.478Z,101044.32
2023-08-15T07:09:29.568Z,101042.77
2023-08-15T07:11:57.537Z,101038.27
2023-08-15T07:14:24.819Z,101045.19
2023-08-15T07:16:52.581Z,101046.80
2023-08-15T07:19:19.968Z,101046.17
2023-08-15T07:21:47.252Z,101045.77
2023-08-15T07:24:14.597Z,101048.88
2023-08-15T07:26:41.847Z,101049.29
2023-08-15T07:29:09.223Z,101049.13
2023-08-15T07:31:36.800Z,101050.41
2023-08-15T07:34:04.345Z,101050.23
2023-08-15T07:36:31.657Z,101050.80
2023-08-15T07:38:58.936Z,101053.29
2023-08-15T07:41:26.197Z,101055.50
2023-08-15T07:43:53.480Z,101052.16
2023-08-15T07:46:20.760Z,101049.94
2023-08-15T07:48:48.140Z,101053.44
2023-08-15T07:51:15.517Z,101053.93
2023-08-15T07:53:42.754Z,101051.77
2023-08-15T07:56:10.084Z,101053.34
2023-08-15T07:58:37.563Z,101053.59
2023-08-15T08:01:05.376Z,101051.23
2023-08-15T08:03:33.465Z,101046.26
2023-08-15T08:06:02.099Z,101046.49
2023-08-15T08:08:30.999Z,101044.23
2023-08-15T08:10:58.289Z,101048.21
2023-08-15T08:13:25.557Z,101045.47
2023-08-15T08:15:52.845Z,101045.21
2023-08-15T08:18:20.095Z,101046.38
2023-08-15T08:20:47.309Z,101051.88
2023-08-15T08:23:14.723Z,101051.11
2023-08-15T08:25:42.028Z,101051.27
2023-08-15T08:28:09.312Z,101052.60
2023-08-15T08:30:38.328Z,101052.58
2023-08-15T08:33:06.119Z,101051.41
2023-08-15T08:35:33.505Z,101047.27
2023-08-15T08:38:00.831Z,101049.94
2023-08-15T08:40:28.894Z,101049.06
2023-08-15T08:42:56.173Z,101045.67
2023-08-15T08:45:25.217Z,101044.58
2023-08-15T08:47:52.716Z,101042.16
2023-08-15T08:50:20.088Z,101042.40
2023-08-15T08:52:50.622Z,101039.54
2023-08-15T08:55:18.605Z,101037.94
2023-08-15T08:57:46.998Z,101038.24
2023-08-15T09:00:14.724Z,101039.58
2023-08-15T09:02:42.144Z,101033.31
2023-08-15T09:05:10.476Z,101029.56
2023-08-15T09:07:37.743Z,101029.08
2023-08-15T09:10:08.719Z,101030.15
2023-08-15T09:12:37.436Z,101024.97
2023-08-15T09:15:05.682Z,101022.56
2023-08-15T09:17:33.521Z,101023.34
2023-08-15T09:20:15.035Z,101023.52
2023-08-15T09:22:45.501Z,101025.34
2023-08-15T09:25:17.087Z,101021.66
2023-08-15T09:27:45.041Z,101022.92
2023-08-15T09:30:14.267Z,101022.93
2023-08-15T09:32:42.239Z,101020.23
2023-08-15T09:36:58.846Z,101017.46
2023-08-15T09:39:26.139Z,101013.37
2023-08-15T09:41:53.668Z,101011.23
2023-08-15T09:44:31.675Z,101009.06
2023-08-15T09:46:59.058Z,101006.42
2023-08-15T09:49:26.917Z,101006.33
2023-08-15T09:51:54.112Z,101004.98
2023-08-15T09:54:21.887Z,101004.92
2023-08-15T09:56:49.786Z,101005.71
2023-08-15T09:59:18.646Z,101003.84
2023-08-15T10:01:46.258Z,101001.55
2023-08-15T10:04:13.847Z,101001.88
2023-08-15T10:06:43.497Z,100996.33
2023-08-15T10:09:13.598Z,100994.05
2023-08-15T10:11:43.030Z,100994.64
2023-08-15T10:14:11.699Z,100994.14
2023-08-15T10:16:39.629Z,100990.27
2023-08-15T10:19:07.471Z,100990.80
2023-08-15T10:21:47.937Z,100997.55
2023-08-15T10:24:15.314Z,100993.44
2023-08-15T10:26:46.698Z,100990.86
2023-08-15T10:29:14.120Z,100988.66
2023-08-15T10:31:42.330Z,100989.77
2023-08-15T10:34:12.179Z,100986.13
2023-08-15T10:36:45.754Z,100984.92
2023-08-15T10:39:13.207Z,100984.23
2023-08-15T10:41:40.768Z,100980.83
2023-08-15T10:44:08.746Z,100979.70
2023-08-15T10:46:36.812Z,100977.81
2023-08-15T10:49:11.078Z,100971.07
2023-08-15T10:51:40.058Z,100969.73
2023-08-15T10:54:10.186Z,100968.15
2023-08-15T10:56:38.711Z,100970.01
2023-08-15T10:59:15.782Z,100966.56
2023-08-15T11:01:44.497Z,100970.34
2023-08-15T11:04:16.617Z,100966.73
2023-08-15T11:06:46.982Z,100965.84
2023-08-15T11:09:14.226Z,100960.58
2023-08-15T11:11:41.765Z,100955.30
2023-08-15T11:14:19.180Z,100949.24
2023-08-15T11:16:49.772Z,100949.10
2023-08-15T11:19:18.475Z,100943.67
2023-08-15T11:21:46.098Z,100944.46
2023-08-15T11:24:13.490Z,100941.60
2023-08-15T11:26:41.552Z,100940.57
2023-08-15T11:29:10.680Z,100939.85
2023-08-15T11:31:38.110Z,100938.57
2023-08-15T11:34:05.522Z,100942.85
2023-08-15T11:36:32.858Z,100943.13
2023-08-15T11:39:04.276Z,100946.64
2023-08-15T11:41:34.071Z,100946.55
2023-08-15T11:44:04.477Z,100945.98
2023-08-15T11:46:51.279Z,100943.59
2023-08-15T11:49:22.500Z,100942.21
2023-08-15T11:51:49.967Z,100938.86
2023-08-15T11:54:17.613Z,100938.71
2023-08-15T11:56:52.097Z,100934.41
2023-08-15T11:59:19.984Z,100933.75
2023-08-15T12:01:48.065Z,100931.47
2023-08-15T12:04:15.321Z,100933.67
2023-08-15T12:06:42.535Z,100929.54
2023-08-15T12:09:09.780Z,100931.44
2023-08-15T12:11:37.472Z,100928.33
2023-08-15T12:14:05.240Z,100929.29
2023-08-15T12:16:32.525Z,100927.56
2023-08-15T12:18:59.774Z,100926.33
2023-08-15T12:21:27.083Z,100926.85
2023-08-15T12:23:54.399Z,100924.28
2023-08-15T12:26:21.582Z,100918.82
2023-08-15T12:28:48.842Z,100917.98
2023-08-15T12:31:17.389Z,100915.60
2023-08-15T12:33:46.881Z,100915.98
2023-08-15T12:36:16.054Z,100913.35
2023-08-15T12:38:44.426Z,100910.57
2023-08-15T12:41:14.581Z,100908.42
2023-08-15T12:43:42.749Z,100907.08
2023-08-15T12:46:10.072Z,100908.42
2023-08-15T12:48:37.318Z,100909.39
2023-08-15T12:51:05.003Z,100907.29
2023-08-15T12:53:32.228Z,100906.55
2023-08-15T12:55:59.452Z,100905.77
2023-08-15T12:58:27.056Z,100901.56
2023-08-15T13:00:54.398Z,100904.61
2023-08-15T13:03:21.699Z,100903.80
2023-08-15T13:05:49.057Z,100906.02
2023-08-15T13:08:18.003Z,100904.23
2023-08-15T13:10:45.186Z,100901.39
2023-08-15T13:13:12.916Z,100899.60
2023-08-15T13:15:40.253Z,100898.18
2023-08-15T13:18:07.666Z,100898.13
2023-08-15T13:20:35.005Z,100895.93
2023-08-15T13:23:02.230Z,100895.23
2023-08-15T13:25:30.305Z,100893.80
2023-08-15T13:27:58.259Z,100892.75
2023-08-15T13:30:25.517Z,100895.27
2023-08-15T13:32:52.800Z,100895.02
2023-08-15T13:35:20.141Z,100891.72
2023-08-15T13:37:47.859Z,100890.58
2023-08-15T13:40:15.896Z,100889.54
2023-08-15T13:42:43.456Z,100887.80
2023-08-15T13:45:11.315Z,100886.45
2023-08-15T13:47:39.328Z,100884.60
2023-08-15T13:50:08.145Z,100887.86
2023-08-15T13:52:37.605Z,100886.11
2023-08-15T13:55:06.233Z,100882.24
2023-08-15T13:57:34.077Z,100882.73
2023-08-15T14:00:02.402Z,100877.16
2023-08-15T14:02:35.412Z,100878.89
2023-08-15T14:05:05.317Z,100877.38
2023-08-15T14:07:33.807Z,100879.45
2023-08-15T21:54:39.920Z,100998.23
2023-08-15T21:57:07.348Z,100995.45
2023-08-15T21:59:34.519Z,100994.88
2023-08-15T22:02:01.733Z,100990.42
2023-08-15T22:04:28.986Z,100987.98
2023-08-15T22:06:56.194Z,100988.51
2023-08-15T22:09:23.460Z,100986.27
2023-08-15T22:11:50.714Z,100986.09
2023-08-15T22:14:18.330Z,100986.17
2023-08-15T22:16:45.651Z,100986.33
2023-08-15T22:19:12.981Z,100987.00
2023-08-15T22:21:41.150Z,100985.48
2023-08-15T22:24:08.497Z,100990.23
2023-08-15T22:26:35.753Z,100986.70
2023-08-15T22:29:03.880Z,100985.25
2023-08-15T22:31:31.146Z,100987.33
2023-08-15T22:33:58.764Z,100986.92
2023-08-15T22:36:25.945Z,100982.27
2023-08-15T22:38:53.145Z,100983.48
2023-08-15T22:41:20.362Z,100981.90
2023-08-15T22:43:47.568Z,100983.67
2023-08-15T22:46:14.798Z,100981.59
2023-08-15T22:48:41.996Z,100988.36
2023-08-15T22:51:09.457Z,100986.17
2023-08-15T22:53:36.766Z,100989.10
2023-08-15T22:56:04.344Z,100987.77
2023-08-15T22:58:31.544Z,100985.55
2023-08-15T23:00:58.863Z,100991.11
2023-08-15T23:03:26.456Z,100987.95
2023-08-15T23:05:53.675Z,100989.22
2023-08-15T23:08:20.900Z,100992.21
2023-08-15T23:10:53.563Z,100988.42
2023-08-15T23:13:20.768Z,100989.69
2023-08-15T23:15:48.082Z,100986.42
2023-08-15T23:18:15.356Z,100990.23
2023-08-15T23:20:42.566Z,100992.46
2023-08-15T23:23:09.936Z,100991.79
2023-08-15T23:25:37.532Z,100990.07
2023-08-15T23:28:05.151Z,100989.73
2023-08-15T23:30:32.386Z,100990.71
2023-08-15T23:32:59.956Z,100991.33
2023-08-15T23:35:27.202Z,100989.83
2023-08-15T23:37:54.444Z,100989.01
2023-08-15T23:40:21.689Z,100991.54
2023-08-15T23:42:48.925Z,100990.61
2023-08-15T23:45:16.583Z,100993.54
2023-08-15T23:47:43.996Z,100992.48
2023-08-15T23:50:13.026Z,100991.98
2023-08-15T23:52:40.452Z,100993.20
2023-08-15T23:55:07.973Z,100991.39
2023-08-15T23:57:35.611Z,100990.80
